createdAt,value
2017-09-28T00:00:56.079Z,18.80
2017-09-28T00:03:23.130Z,21.03
2017-09-28T00:05:50.173Z,19.33
2017-09-28T00:08:17.201Z,19.93
2017-09-28T00:10:44.971Z,19.33
2017-09-28T00:13:12.018Z,19.93
2017-09-28T00:15:39.083Z,20.00
2017-09-28T00:18:06.144Z,18.77
2017-09-28T00:20:32.427Z,19.43
2017-09-28T00:22:58.730Z,20.97
2017-09-28T00:25:25.010Z,19.67
2017-09-28T00:27:51.334Z,18.83
2017-09-28T00:30:18.376Z,19.17
2017-09-28T00:32:45.433Z,19.10
2017-09-28T00:35:13.398Z,19.70
2017-09-28T00:37:40.457Z,19.37
2017-09-28T00:40:06.766Z,19.93
2017-09-28T00:42:33.864Z,19.40
2017-09-28T00:45:00.176Z,19.20
2017-09-28T00:47:27.333Z,19.40
2017-09-28T00:49:53.623Z,18.77
2017-09-28T00:52:21.406Z,20.47
2017-09-28T00:54:49.391Z,20.10
2017-09-28T00:57:15.686Z,20.00
2017-09-28T00:59:42.750Z,19.57
2017-09-28T01:02:09.785Z,19.33
2017-09-28T01:04:37.688Z,17.73
2017-09-28T01:07:04.001Z,21.20
2017-09-28T01:09:30.339Z,18.53
2017-09-28T01:11:57.965Z,20.50
2017-09-28T01:14:25.021Z,19.10
2017-09-28T01:16:52.065Z,20.87
2017-09-28T01:19:19.108Z,19.40
2017-09-28T01:21:45.435Z,20.80
2017-09-28T01:24:13.402Z,19.63
2017-09-28T01:26:40.458Z,20.17
2017-09-28T01:29:07.511Z,19.20
2017-09-28T01:31:34.566Z,20.23
2017-09-28T01:34:00.874Z,20.50
2017-09-28T01:36:27.935Z,20.43
2017-09-28T01:38:54.991Z,22.37
2017-09-28T01:41:21.344Z,21.87
2017-09-28T01:43:47.652Z,20.73
2017-09-28T01:46:14.720Z,20.50
2017-09-28T01:48:41.055Z,21.07
2017-09-28T01:51:07.345Z,21.30
2017-09-28T01:53:34.402Z,21.57
2017-09-28T01:56:01.458Z,21.87
2017-09-28T01:58:27.768Z,20.73
2017-09-28T02:00:54.824Z,20.40
2017-09-28T02:03:21.891Z,21.60
2017-09-28T02:05:48.206Z,20.50
2017-09-28T02:08:14.508Z,21.50
2017-09-28T02:10:42.318Z,22.17
2017-09-28T02:13:08.461Z,22.20
2017-09-28T02:15:34.784Z,21.30
2017-09-28T02:18:01.097Z,21.83
2017-09-28T02:20:27.417Z,21.20
2017-09-28T02:22:54.458Z,20.73
2017-09-28T02:25:21.515Z,21.93
2017-09-28T02:27:47.814Z,23.23
2017-09-28T02:30:14.145Z,21.93
2017-09-28T02:32:40.451Z,20.57
2017-09-28T02:35:06.759Z,21.90
2017-09-28T02:37:33.078Z,24.80
2017-09-28T02:39:59.395Z,22.37
2017-09-28T02:42:26.423Z,22.57
2017-09-28T02:44:52.692Z,22.23
2017-09-28T02:47:18.988Z,22.43
2017-09-28T02:49:45.260Z,22.20
2017-09-28T02:52:11.561Z,22.07
2017-09-28T02:54:38.578Z,23.43
2017-09-28T02:57:04.859Z,22.83
2017-09-28T02:59:31.150Z,23.33
2017-09-28T03:01:58.914Z,22.83
2017-09-28T03:04:25.185Z,23.80
2017-09-28T03:06:51.475Z,21.77
2017-09-28T03:09:18.525Z,22.00
2017-09-28T03:11:45.545Z,22.43
2017-09-28T03:14:13.309Z,23.87
2017-09-28T03:16:39.608Z,22.73
2017-09-28T03:19:05.873Z,23.63
2017-09-28T03:21:32.901Z,22.77
2017-09-28T03:23:59.192Z,23.00
2017-09-28T03:26:25.482Z,23.17
2017-09-28T03:28:52.721Z,21.93
2017-09-28T03:31:19.014Z,22.17
2017-09-28T03:33:45.317Z,22.83
2017-09-28T03:36:12.342Z,23.40
2017-09-28T03:38:38.630Z,22.43
2017-09-28T03:41:04.946Z,23.97
2017-09-28T03:43:31.233Z,22.80
2017-09-28T03:45:58.265Z,22.40
2017-09-28T03:48:25.340Z,21.73
2017-09-28T03:50:52.386Z,21.27
2017-09-28T03:53:19.430Z,22.10
2017-09-28T03:55:45.702Z,22.43
2017-09-28T03:58:11.994Z,22.13
2017-09-28T04:00:39.047Z,21.23
2017-09-28T04:03:06.079Z,21.50
2017-09-28T04:05:33.113Z,22.33
2017-09-28T04:08:00.891Z,21.53
2017-09-28T04:10:27.173Z,21.63
2017-09-28T04:12:53.469Z,22.97
2017-09-28T04:15:19.815Z,21.00
2017-09-28T04:17:46.123Z,21.00
2017-09-28T04:20:12.445Z,21.80
2017-09-28T04:22:39.482Z,21.73
2017-09-28T04:25:05.789Z,20.30
2017-09-28T04:27:32.100Z,21.33
2017-09-28T04:29:58.389Z,21.07
2017-09-28T04:32:25.449Z,22.10
2017-09-28T04:34:51.772Z,21.23
2017-09-28T04:37:18.796Z,21.50
2017-09-28T04:39:45.054Z,21.33
2017-09-28T04:42:11.339Z,21.63
2017-09-28T04:44:37.622Z,21.57
2017-09-28T04:47:03.910Z,22.20
2017-09-28T04:49:30.190Z,21.17
2017-09-28T04:51:56.480Z,22.83
2017-09-28T04:54:23.502Z,20.47
2017-09-28T04:56:49.789Z,22.27
2017-09-28T04:59:16.217Z,21.60
2017-09-28T05:01:42.510Z,21.20
2017-09-28T05:04:09.551Z,20.70
2017-09-28T05:06:35.843Z,20.93
2017-09-28T05:09:02.185Z,22.07
2017-09-28T05:11:29.016Z,21.47
2017-09-28T05:13:55.308Z,21.57
2017-09-28T05:16:22.341Z,23.20
2017-09-28T05:18:49.365Z,21.07
2017-09-28T05:21:15.658Z,20.47
2017-09-28T05:23:41.958Z,22.00
2017-09-28T05:26:08.981Z,22.00
2017-09-28T05:28:36.051Z,21.40
2017-09-28T05:31:03.082Z,21.73
2017-09-28T05:33:30.120Z,21.60
2017-09-28T05:35:56.479Z,21.13
2017-09-28T05:38:22.808Z,21.47
2017-09-28T05:40:49.162Z,19.33
2017-09-28T05:43:15.458Z,21.63
2017-09-28T05:45:41.802Z,20.27
2017-09-28T05:48:08.968Z,20.43
2017-09-28T05:50:35.319Z,21.53
2017-09-28T05:53:01.598Z,21.70
2017-09-28T05:55:29.468Z,21.10
2017-09-28T05:57:57.233Z,21.03
2017-09-28T06:00:23.616Z,21.87
2017-09-28T06:02:49.990Z,21.93
2017-09-28T06:05:16.357Z,22.60
2017-09-28T06:07:42.665Z,22.97
2017-09-28T06:10:09.019Z,27.03
2017-09-28T06:12:35.371Z,22.53
2017-09-28T06:15:01.701Z,22.73
2017-09-28T06:17:28.035Z,23.43
2017-09-28T06:19:54.336Z,21.63
2017-09-28T06:22:20.662Z,20.93
2017-09-28T06:24:47.022Z,23.10
2017-09-28T06:27:13.387Z,21.97
2017-09-28T06:29:39.694Z,21.83
2017-09-28T06:32:06.011Z,20.13
2017-09-28T06:34:32.341Z,22.80
2017-09-28T06:36:58.649Z,20.33
2017-09-28T06:39:25.004Z,20.20
2017-09-28T06:41:51.417Z,19.77
2017-09-28T06:44:17.767Z,21.07
2017-09-28T06:46:44.101Z,18.00
2017-09-28T06:49:10.420Z,19.63
2017-09-28T06:51:36.773Z,20.17
2017-09-28T06:54:03.096Z,18.70
2017-09-28T06:56:29.395Z,21.70
2017-09-28T06:58:55.723Z,19.50
2017-09-28T07:01:22.027Z,19.53
2017-09-28T07:03:49.077Z,20.63
2017-09-28T07:06:16.125Z,20.53
2017-09-28T07:08:43.196Z,21.40
2017-09-28T07:11:09.510Z,19.30
2017-09-28T07:13:35.835Z,18.83
2017-09-28T07:16:02.158Z,18.87
2017-09-28T07:18:30.127Z,18.60
2017-09-28T07:20:57.170Z,19.73
2017-09-28T07:23:23.491Z,19.27
2017-09-28T07:25:50.550Z,19.83
2017-09-28T07:28:17.574Z,20.60
2017-09-28T07:30:43.895Z,18.30
2017-09-28T07:33:10.957Z,20.03
2017-09-28T07:35:38.031Z,18.13
2017-09-28T07:38:04.329Z,19.63
2017-09-28T07:40:30.633Z,19.50
2017-09-28T07:42:56.923Z,18.23
2017-09-28T07:45:23.961Z,19.30
2017-09-28T07:47:51.053Z,18.40
2017-09-28T07:50:17.356Z,19.07
2017-09-28T07:52:43.656Z,18.70
2017-09-28T07:55:10.690Z,18.90
2017-09-28T07:57:37.734Z,19.80
2017-09-28T08:00:04.049Z,18.23
2017-09-28T08:02:30.399Z,21.20
2017-09-28T08:04:56.716Z,18.93
2017-09-28T08:07:24.505Z,18.27
2017-09-28T08:09:51.558Z,19.33
2017-09-28T08:12:18.634Z,18.50
2017-09-28T08:14:44.972Z,19.40
2017-09-28T08:17:11.286Z,19.50
2017-09-28T08:19:37.603Z,19.97
2017-09-28T08:22:04.653Z,19.77
2017-09-28T08:24:31.785Z,18.70
2017-09-28T08:26:58.146Z,19.63
2017-09-28T08:29:24.486Z,18.70
2017-09-28T08:31:50.808Z,20.47
2017-09-28T08:34:17.178Z,18.90
2017-09-28T08:36:44.973Z,19.47
2017-09-28T08:39:12.366Z,19.30
2017-09-28T08:41:38.693Z,19.77
2017-09-28T08:44:05.887Z,20.77
2017-09-28T08:46:32.970Z,19.97
2017-09-28T08:48:59.316Z,19.67
2017-09-28T08:51:25.601Z,20.40
2017-09-28T08:53:53.422Z,19.10
2017-09-28T08:56:19.713Z,19.50
2017-09-28T08:58:46.768Z,19.37
2017-09-28T09:01:13.827Z,20.80
2017-09-28T09:03:40.121Z,19.83
2017-09-28T09:06:07.166Z,20.00
2017-09-28T09:08:34.205Z,19.93
2017-09-28T09:11:00.510Z,18.50
2017-09-28T09:13:26.788Z,21.13
2017-09-28T09:15:53.846Z,20.57
2017-09-28T09:18:20.870Z,19.70
2017-09-28T09:20:47.154Z,20.27
2017-09-28T09:23:13.431Z,19.97
2017-09-28T09:25:39.737Z,21.20
2017-09-28T09:28:06.018Z,20.73
2017-09-28T09:30:33.067Z,20.53
2017-09-28T09:32:59.364Z,19.67
2017-09-28T09:35:25.641Z,22.57
2017-09-28T09:37:52.000Z,20.90
2017-09-28T09:40:18.353Z,20.83
2017-09-28T09:42:45.433Z,21.00
2017-09-28T09:45:11.742Z,21.67
2017-09-28T09:47:38.084Z,27.77
2017-09-28T09:50:05.131Z,22.07
2017-09-28T09:52:32.189Z,21.30
2017-09-28T09:55:00.028Z,22.07
2017-09-28T09:57:27.266Z,20.50
2017-09-28T09:59:53.582Z,21.70
2017-09-28T10:02:19.914Z,21.60
2017-09-28T10:04:46.244Z,22.00
2017-09-28T10:07:16.062Z,22.90
2017-09-28T10:09:45.828Z,24.37
2017-09-28T10:12:18.156Z,24.20
2017-09-28T10:14:47.670Z,23.20
2017-09-28T10:17:16.222Z,24.60
2017-09-28T10:19:42.643Z,24.27
2017-09-28T10:22:09.733Z,23.70
2017-09-28T10:24:36.041Z,24.00
2017-09-28T10:27:02.327Z,22.60
2017-09-28T10:29:28.643Z,22.30
2017-09-28T10:31:54.954Z,23.57
2017-09-28T10:34:22.009Z,22.10
2017-09-28T10:36:49.055Z,23.73
2017-09-28T10:39:16.099Z,25.60
2017-09-28T10:41:43.146Z,24.53
2017-09-28T10:44:09.454Z,23.50
2017-09-28T10:46:37.239Z,24.33
2017-09-28T10:49:04.357Z,24.40
2017-09-28T10:51:31.458Z,24.93
2017-09-28T10:53:57.754Z,24.20
2017-09-28T10:56:25.562Z,25.87
2017-09-28T10:58:51.867Z,25.50
2017-09-28T11:01:18.902Z,23.53
2017-09-28T11:03:46.672Z,26.80
2017-09-28T11:06:13.015Z,25.53
2017-09-28T11:08:40.042Z,26.63
2017-09-28T11:11:07.836Z,26.50
2017-09-28T11:13:34.857Z,24.60
2017-09-28T11:16:01.374Z,22.47
2017-09-28T11:18:27.666Z,24.87
2017-09-28T11:20:53.963Z,25.90
2017-09-28T11:23:21.011Z,25.20
2017-09-28T11:25:48.052Z,25.17
2017-09-28T11:28:15.114Z,26.10
2017-09-28T11:30:41.445Z,25.27
2017-09-28T11:33:07.756Z,24.80
2017-09-28T11:35:34.784Z,24.60
2017-09-28T11:38:01.092Z,25.10
2017-09-28T11:40:27.390Z,26.20
2017-09-28T11:42:53.677Z,22.70
2017-09-28T11:45:19.999Z,24.30
2017-09-28T11:47:46.287Z,22.53
2017-09-28T11:50:12.694Z,22.87
2017-09-28T11:52:39.010Z,21.40
2017-09-28T11:55:06.228Z,23.60
2017-09-28T11:57:32.514Z,23.63
2017-09-28T11:59:59.570Z,23.93
2017-09-28T12:02:25.892Z,24.53
2017-09-28T12:04:52.188Z,24.20
2017-09-28T12:07:18.488Z,23.90
2017-09-28T12:09:44.927Z,25.20
2017-09-28T12:12:11.453Z,22.70
2017-09-28T12:14:37.769Z,22.40
2017-09-28T12:17:04.085Z,22.80
2017-09-28T12:19:30.372Z,22.60
2017-09-28T12:21:58.153Z,21.47
2017-09-28T12:24:24.453Z,22.37
2017-09-28T12:26:50.862Z,21.03
2017-09-28T12:29:17.162Z,23.23
2017-09-28T12:31:43.473Z,22.97
2017-09-28T12:34:09.769Z,22.47
2017-09-28T12:36:36.116Z,21.83
2017-09-28T12:39:02.445Z,22.93
2017-09-28T12:41:28.770Z,22.93
2017-09-28T12:43:55.122Z,22.07
2017-09-28T12:46:21.416Z,22.93
2017-09-28T12:48:47.721Z,21.43
2017-09-28T12:51:14.005Z,20.57
2017-09-28T12:53:40.321Z,21.47
2017-09-28T12:56:06.585Z,20.43
2017-09-28T12:58:33.630Z,21.23
2017-09-28T13:01:00.681Z,22.90
2017-09-28T13:03:27.822Z,21.90
2017-09-28T13:05:54.828Z,21.97
2017-09-28T13:08:21.160Z,21.03
2017-09-28T13:10:47.474Z,24.23
2017-09-28T13:13:13.766Z,21.97
2017-09-28T13:15:40.106Z,20.90
2017-09-28T13:18:06.404Z,20.90
2017-09-28T13:20:32.701Z,21.37
2017-09-28T13:22:59.003Z,21.57
2017-09-28T13:25:26.104Z,20.73
2017-09-28T13:27:52.414Z,21.80
2017-09-28T13:30:18.740Z,20.97
2017-09-28T13:32:45.041Z,21.13
2017-09-28T13:35:11.344Z,21.17
2017-09-28T13:37:38.380Z,22.00
2017-09-28T13:40:05.477Z,22.17
2017-09-28T13:42:31.791Z,21.97
2017-09-28T13:44:58.106Z,21.23
2017-09-28T13:47:24.421Z,20.83
2017-09-28T13:49:51.537Z,21.80
2017-09-28T13:52:17.821Z,21.40
2017-09-28T13:54:44.124Z,20.57
2017-09-28T13:57:10.493Z,22.00
2017-09-28T13:59:36.846Z,20.97
2017-09-28T14:02:03.138Z,22.43
2017-09-28T14:04:30.245Z,21.20
2017-09-28T14:06:57.342Z,21.10
2017-09-28T14:09:23.655Z,20.90
2017-09-28T14:11:50.699Z,21.33
2017-09-28T14:14:18.250Z,21.73
2017-09-28T14:16:46.193Z,22.60
2017-09-28T14:19:14.279Z,21.73
2017-09-28T14:21:41.002Z,22.03
2017-09-28T14:24:08.938Z,22.20
2017-09-28T14:26:35.278Z,21.57
2017-09-28T14:29:01.635Z,23.10
2017-09-28T14:31:27.976Z,22.70
2017-09-28T14:33:54.519Z,26.63
2017-09-28T14:36:20.909Z,22.83
2017-09-28T14:38:47.215Z,21.07
2017-09-28T14:41:13.522Z,21.73
2017-09-28T14:43:40.599Z,20.43
2017-09-28T14:46:06.942Z,22.13
2017-09-28T14:48:33.276Z,22.60
2017-09-28T14:50:59.615Z,22.33
2017-09-28T14:53:25.935Z,22.33
2017-09-28T14:55:52.242Z,21.90
2017-09-28T14:58:18.558Z,20.83
2017-09-28T15:00:45.600Z,20.03
2017-09-28T15:03:12.650Z,21.70
2017-09-28T15:05:39.684Z,21.40
2017-09-28T15:08:06.734Z,21.00
2017-09-28T15:10:33.765Z,22.83
2017-09-28T15:13:00.070Z,21.77
2017-09-28T15:15:26.511Z,22.73
2017-09-28T15:17:52.866Z,24.37
2017-09-28T15:20:19.176Z,22.93
2017-09-28T15:22:45.607Z,22.33
2017-09-28T15:25:11.887Z,22.10
2017-09-28T15:27:38.189Z,22.80
2017-09-28T15:30:04.507Z,22.90
2017-09-28T15:32:30.963Z,22.10
2017-09-28T15:35:04.552Z,21.87
2017-09-28T15:37:31.663Z,22.83
2017-09-28T15:39:57.959Z,22.10
2017-09-28T15:42:24.329Z,23.37
2017-09-28T15:44:50.638Z,22.93
2017-09-28T15:47:16.957Z,23.20
2017-09-28T15:49:43.254Z,21.80
2017-09-28T15:52:10.306Z,22.37
2017-09-28T15:54:37.357Z,22.37
2017-09-28T15:57:04.394Z,23.57
2017-09-28T15:59:30.719Z,21.40
2017-09-28T16:01:57.763Z,21.43
2017-09-28T16:04:25.551Z,21.20
2017-09-28T16:06:51.854Z,22.77
2017-09-28T16:09:18.147Z,22.87
2017-09-28T16:11:44.422Z,23.30
2017-09-28T16:14:10.727Z,22.87
2017-09-28T16:16:37.024Z,23.90
2017-09-28T16:19:10.199Z,23.53
2017-09-28T16:21:36.513Z,23.77
2017-09-28T16:24:03.541Z,23.17
2017-09-28T16:26:29.826Z,24.13
2017-09-28T16:28:56.119Z,23.87
2017-09-28T16:31:22.408Z,23.10
2017-09-28T16:33:48.702Z,24.30
2017-09-28T16:36:15.001Z,24.33
2017-09-28T16:38:42.116Z,25.97
2017-09-28T16:41:08.436Z,23.77
2017-09-28T16:43:34.757Z,24.50
2017-09-28T16:46:01.082Z,25.97
2017-09-28T16:48:27.373Z,25.37
2017-09-28T16:50:53.660Z,25.83
2017-09-28T16:53:19.943Z,26.87
2017-09-28T16:55:46.966Z,24.43
2017-09-28T16:58:14.011Z,26.80
2017-09-28T17:00:41.807Z,24.70
2017-09-28T17:03:08.090Z,24.90
2017-09-28T17:05:34.381Z,25.00
2017-09-28T17:08:00.653Z,25.63
2017-09-28T17:10:26.937Z,26.20
2017-09-28T17:12:53.251Z,24.67
2017-09-28T17:15:19.551Z,26.70
2017-09-28T17:17:47.339Z,25.97
2017-09-28T17:20:14.381Z,25.87
2017-09-28T17:22:41.493Z,25.10
2017-09-28T17:25:07.804Z,24.93
2017-09-28T17:27:34.078Z,25.73
2017-09-28T17:30:00.366Z,24.10
2017-09-28T17:32:26.704Z,25.90
2017-09-28T17:34:52.977Z,24.27
2017-09-28T17:37:20.054Z,25.60
2017-09-28T17:39:46.335Z,24.80
2017-09-28T17:42:14.102Z,26.80
2017-09-28T17:44:40.501Z,25.57
2017-09-28T17:47:06.791Z,24.93
2017-09-28T17:49:33.806Z,23.93
2017-09-28T17:52:00.828Z,24.77
2017-09-28T17:54:27.097Z,25.87
2017-09-28T17:56:53.369Z,22.97
2017-09-28T17:59:19.640Z,25.40
2017-09-28T18:01:47.422Z,25.27
2017-09-28T18:04:14.437Z,24.90
2017-09-28T18:06:40.721Z,26.70
2017-09-28T18:09:07.006Z,25.40
2017-09-28T18:11:34.050Z,25.33
2017-09-28T18:14:01.854Z,25.40
2017-09-28T18:16:28.162Z,25.73
2017-09-28T18:18:55.033Z,26.00
2017-09-28T18:21:22.069Z,24.50
2017-09-28T18:23:48.628Z,26.30
2017-09-28T18:26:14.954Z,25.10
2017-09-28T18:28:41.281Z,27.97
2017-09-28T18:31:07.553Z,26.10
2017-09-28T18:33:33.844Z,24.10
2017-09-28T18:36:00.128Z,26.57
2017-09-28T18:38:27.166Z,26.37
2017-09-28T18:40:54.950Z,27.57
2017-09-28T18:43:22.023Z,27.60
2017-09-28T18:45:48.326Z,27.43
2017-09-28T18:48:15.130Z,26.80
2017-09-28T18:50:42.218Z,27.20
2017-09-28T18:53:09.288Z,28.03
2017-09-28T18:55:35.601Z,27.40
2017-09-28T18:58:02.647Z,28.70
2017-09-28T19:00:28.977Z,31.33
2017-09-28T19:02:56.012Z,28.60
2017-09-28T19:05:22.408Z,31.10
2017-09-28T19:07:49.517Z,30.70
2017-09-28T19:10:15.842Z,30.10
2017-09-28T19:12:42.877Z,28.77
2017-09-28T19:15:10.030Z,32.40
2017-09-28T19:17:36.333Z,30.60
2017-09-28T19:20:03.431Z,29.73
2017-09-28T19:22:29.721Z,31.93
2017-09-28T19:24:56.764Z,31.27
2017-09-28T19:27:23.947Z,31.70
2017-09-28T19:29:51.026Z,30.63
2017-09-28T19:32:17.346Z,33.97
2017-09-28T19:34:43.712Z,32.57
2017-09-28T19:37:10.035Z,31.50
2017-09-28T19:39:38.641Z,31.77
2017-09-28T19:42:06.484Z,31.20
2017-09-28T19:44:32.785Z,32.40
2017-09-28T19:46:59.128Z,34.80
2017-09-28T19:49:25.516Z,30.27
2017-09-28T19:51:52.109Z,31.63
2017-09-28T19:54:18.483Z,33.03
2017-09-28T19:56:45.125Z,30.70
2017-09-28T19:59:12.213Z,30.47
2017-09-28T20:01:39.519Z,32.40
2017-09-28T20:04:05.867Z,33.40
2017-09-28T20:06:32.222Z,32.87
2017-09-28T20:08:58.734Z,32.03
2017-09-28T20:11:25.054Z,31.23
2017-09-28T20:13:52.188Z,30.90
2017-09-28T20:16:19.233Z,32.87
2017-09-28T20:18:46.998Z,32.03
2017-09-28T20:21:13.296Z,31.27
2017-09-28T20:23:39.625Z,33.83
2017-09-28T20:26:05.925Z,31.77
2017-09-28T20:28:32.234Z,31.03
2017-09-28T20:30:59.456Z,32.57
2017-09-28T20:33:26.014Z,31.73
2017-09-28T20:35:52.311Z,31.47
2017-09-28T20:38:18.625Z,32.13
2017-09-28T20:40:44.899Z,31.77
2017-09-28T20:43:11.208Z,31.47
2017-09-28T20:45:38.995Z,32.23
2017-09-28T20:48:06.391Z,30.70
2017-09-28T20:50:32.803Z,32.10
2017-09-28T20:52:59.185Z,32.20
2017-09-28T20:55:26.984Z,34.33
2017-09-28T20:57:53.423Z,33.97
2017-09-28T21:00:19.723Z,31.10
2017-09-28T21:02:46.017Z,30.77
2017-09-28T21:05:12.407Z,32.30
2017-09-28T21:07:38.720Z,32.23
2017-09-28T21:10:05.025Z,33.33
2017-09-28T21:12:31.372Z,32.60
2017-09-28T21:14:58.522Z,33.20
2017-09-28T21:17:25.591Z,31.57
2017-09-28T21:19:52.916Z,31.77
2017-09-28T21:22:19.188Z,31.93
2017-09-28T21:24:46.383Z,31.33
2017-09-28T21:27:12.651Z,32.47
2017-09-28T21:29:38.905Z,32.63
2017-09-28T21:32:05.253Z,31.87
2017-09-28T21:34:31.585Z,32.37
2017-09-28T21:36:57.875Z,30.80
2017-09-28T21:39:24.911Z,32.00
2017-09-28T21:41:51.977Z,32.13
2017-09-28T21:44:18.996Z,33.80
2017-09-28T21:46:45.290Z,33.43
2017-09-28T21:49:12.303Z,33.43
2017-09-28T21:51:38.699Z,32.97
2017-09-28T21:54:05.170Z,32.33
2017-09-28T21:56:31.555Z,33.83
2017-09-28T21:58:58.859Z,33.93
2017-09-28T22:01:25.442Z,31.57
2017-09-28T22:03:51.767Z,33.30
2017-09-28T22:06:18.041Z,33.90
2017-09-28T22:08:44.342Z,34.57
2017-09-28T22:11:10.631Z,33.53
2017-09-28T22:13:36.909Z,34.93
2017-09-28T22:16:03.943Z,33.77
2017-09-28T22:18:30.219Z,33.00
2017-09-28T22:20:57.942Z,33.67
2017-09-28T22:23:24.198Z,33.77
2017-09-28T22:25:50.483Z,34.13
2017-09-28T22:28:16.778Z,34.13
2017-09-28T22:30:43.796Z,34.93
2017-09-28T22:33:10.041Z,35.20
2017-09-28T22:35:36.299Z,33.30
2017-09-28T22:38:03.307Z,32.73
2017-09-28T22:40:29.648Z,33.53
2017-09-28T22:42:56.655Z,33.00
2017-09-28T22:45:22.945Z,33.00
2017-09-28T22:47:49.948Z,33.43
2017-09-28T22:50:16.462Z,30.43
2017-09-28T22:52:42.723Z,31.83
2017-09-28T22:55:09.036Z,32.40
2017-09-28T22:57:36.164Z,33.77
2017-09-28T23:00:02.596Z,33.33
2017-09-28T23:02:28.945Z,32.10
2017-09-28T23:04:55.430Z,34.07
2017-09-28T23:07:22.566Z,35.17
2017-09-28T23:09:48.982Z,33.13
2017-09-28T23:12:15.351Z,36.17
2017-09-28T23:14:42.581Z,34.43
2017-09-28T23:17:09.060Z,35.43
2017-09-28T23:19:36.311Z,33.50
2017-09-28T23:22:03.479Z,34.83
2017-09-28T23:24:29.892Z,36.27
2017-09-28T23:26:57.020Z,36.63
2017-09-28T23:29:24.081Z,36.43
2017-09-28T23:31:50.365Z,36.43
2017-09-28T23:34:17.376Z,34.17
2017-09-28T23:36:44.413Z,36.33
2017-09-28T23:39:10.904Z,37.10
2017-09-28T23:41:37.195Z,34.03
2017-09-28T23:44:04.292Z,36.40
2017-09-28T23:46:30.646Z,36.07
2017-09-28T23:48:57.130Z,34.40
2017-09-28T23:51:23.464Z,36.13
2017-09-28T23:53:49.818Z,35.30
2017-09-28T23:56:16.269Z,36.97
2017-09-28T23:58:42.795Z,34.87
